<?xml version="1.0" encoding="UTF-8" standalone="no" ?>
<gpx xmlns="http://www.topografix.com/GPX/1/1" xmlns:xsi="http://www.w3.org/2001/XMLSchema-instance" xsi:schemaLocation="http://www.topografix.com/GPX/1/1 http://www.topografix.com/GPX/1/1/gpx.xsd" version="1.1" creator="VisuGPX - https://www.visugpx.com">
  <metadata>
    <name>Cyclo-Patrouille-Bruges-04-2025</name>
  </metadata>
  <trk>
    <name><![CDATA[Tracé actuel: 13 AVR 2025 15:48]]></name>
    <trkseg>
      <trkpt lat="44.88611" lon="-0.64274">
        <ele>40.03</ele>
        <time>2025-04-13T13:48:43Z</time>
      </trkpt>
      <trkpt lat="44.88607" lon="-0.64271">
        <ele>40.51</ele>
        <time>2025-04-13T13:49:26Z</time>
      </trkpt>
      <trkpt lat="44.88606" lon="-0.64272">
        <ele>39.07</ele>
        <time>2025-04-13T13:49:32Z</time>
      </trkpt>
      <trkpt lat="44.88606" lon="-0.64272">
        <ele>41.47</ele>
        <time>2025-04-13T13:49:33Z</time>
      </trkpt>
      <trkpt lat="44.88606" lon="-0.64272">
        <ele>40.03</ele>
        <time>2025-04-13T13:49:34Z</time>
      </trkpt>
      <trkpt lat="44.88602" lon="-0.64268">
        <ele>42.44</ele>
        <time>2025-04-13T13:49:48Z</time>
      </trkpt>
      <trkpt lat="44.88601" lon="-0.64268">
        <ele>40.51</ele>
        <time>2025-04-13T13:49:49Z</time>
      </trkpt>
      <trkpt lat="44.88601" lon="-0.64269">
        <ele>40.99</ele>
        <time>2025-04-13T13:49:55Z</time>
      </trkpt>
      <trkpt lat="44.88605" lon="-0.6428">
        <ele>39.55</ele>
        <time>2025-04-13T13:50:09Z</time>
      </trkpt>
      <trkpt lat="44.8858" lon="-0.643">
        <ele>40.99</ele>
        <time>2025-04-13T14:02:58Z</time>
      </trkpt>
      <trkpt lat="44.8858" lon="-0.64301">
        <ele>40.99</ele>
        <time>2025-04-13T14:02:59Z</time>
      </trkpt>
      <trkpt lat="44.88589" lon="-0.64308">
        <ele>40.99</ele>
        <time>2025-04-13T14:03:37Z</time>
      </trkpt>
      <trkpt lat="44.88587" lon="-0.64308">
        <ele>41.95</ele>
        <time>2025-04-13T14:04:06Z</time>
      </trkpt>
      <trkpt lat="44.88582" lon="-0.64301">
        <ele>45.8</ele>
        <time>2025-04-13T14:04:27Z</time>
      </trkpt>
      <trkpt lat="44.88582" lon="-0.64301">
        <ele>44.84</ele>
        <time>2025-04-13T14:04:28Z</time>
      </trkpt>
      <trkpt lat="44.88597" lon="-0.64294">
        <ele>46.28</ele>
        <time>2025-04-13T14:04:53Z</time>
      </trkpt>
      <trkpt lat="44.88597" lon="-0.64296">
        <ele>45.8</ele>
        <time>2025-04-13T14:05:23Z</time>
      </trkpt>
      <trkpt lat="44.88593" lon="-0.64299">
        <ele>45.8</ele>
        <time>2025-04-13T14:05:56Z</time>
      </trkpt>
      <trkpt lat="44.88596" lon="-0.64302">
        <ele>45.8</ele>
        <time>2025-04-13T14:06:25Z</time>
      </trkpt>
      <trkpt lat="44.88604" lon="-0.64297">
        <ele>45.8</ele>
        <time>2025-04-13T14:06:54Z</time>
      </trkpt>
      <trkpt lat="44.88612" lon="-0.643">
        <ele>45.8</ele>
        <time>2025-04-13T14:07:23Z</time>
      </trkpt>
      <trkpt lat="44.88623" lon="-0.64298">
        <ele>45.32</ele>
        <time>2025-04-13T14:07:49Z</time>
      </trkpt>
      <trkpt lat="44.88614" lon="-0.64307">
        <ele>44.36</ele>
        <time>2025-04-13T14:08:18Z</time>
      </trkpt>
      <trkpt lat="44.88609" lon="-0.64296">
        <ele>44.84</ele>
        <time>2025-04-13T14:08:46Z</time>
      </trkpt>
      <trkpt lat="44.88605" lon="-0.64298">
        <ele>43.88</ele>
        <time>2025-04-13T14:09:20Z</time>
      </trkpt>
      <trkpt lat="44.88611" lon="-0.64309">
        <ele>43.4</ele>
        <time>2025-04-13T14:09:44Z</time>
      </trkpt>
      <trkpt lat="44.8861" lon="-0.64305">
        <ele>43.88</ele>
        <time>2025-04-13T14:10:09Z</time>
      </trkpt>
      <trkpt lat="44.88603" lon="-0.64298">
        <ele>44.36</ele>
        <time>2025-04-13T14:10:33Z</time>
      </trkpt>
      <trkpt lat="44.88602" lon="-0.64294">
        <ele>43.88</ele>
        <time>2025-04-13T14:11:01Z</time>
      </trkpt>
      <trkpt lat="44.88603" lon="-0.64295">
        <ele>43.4</ele>
        <time>2025-04-13T14:11:32Z</time>
      </trkpt>
      <trkpt lat="44.88607" lon="-0.64294">
        <ele>45.8</ele>
        <time>2025-04-13T14:11:45Z</time>
      </trkpt>
      <trkpt lat="44.88607" lon="-0.64294">
        <ele>43.88</ele>
        <time>2025-04-13T14:11:46Z</time>
      </trkpt>
      <trkpt lat="44.88612" lon="-0.64289">
        <ele>44.36</ele>
        <time>2025-04-13T14:12:10Z</time>
      </trkpt>
      <trkpt lat="44.88604" lon="-0.64297">
        <ele>43.4</ele>
        <time>2025-04-13T14:12:36Z</time>
      </trkpt>
      <trkpt lat="44.886" lon="-0.64301">
        <ele>43.4</ele>
        <time>2025-04-13T14:13:05Z</time>
      </trkpt>
      <trkpt lat="44.88602" lon="-0.64294">
        <ele>43.4</ele>
        <time>2025-04-13T14:13:33Z</time>
      </trkpt>
      <trkpt lat="44.88615" lon="-0.64292">
        <ele>43.4</ele>
        <time>2025-04-13T14:14:07Z</time>
      </trkpt>
      <trkpt lat="44.88609" lon="-0.64297">
        <ele>42.92</ele>
        <time>2025-04-13T14:14:38Z</time>
      </trkpt>
      <trkpt lat="44.88605" lon="-0.64302">
        <ele>42.92</ele>
        <time>2025-04-13T14:15:05Z</time>
      </trkpt>
      <trkpt lat="44.88604" lon="-0.64297">
        <ele>42.92</ele>
        <time>2025-04-13T14:15:34Z</time>
      </trkpt>
      <trkpt lat="44.88603" lon="-0.64292">
        <ele>42.92</ele>
        <time>2025-04-13T14:16:00Z</time>
      </trkpt>
      <trkpt lat="44.88607" lon="-0.64293">
        <ele>42.44</ele>
        <time>2025-04-13T14:16:28Z</time>
      </trkpt>
      <trkpt lat="44.8863" lon="-0.64297">
        <ele>42.44</ele>
        <time>2025-04-13T14:16:57Z</time>
      </trkpt>
      <trkpt lat="44.88628" lon="-0.64296">
        <ele>42.44</ele>
        <time>2025-04-13T14:17:03Z</time>
      </trkpt>
      <trkpt lat="44.88632" lon="-0.64296">
        <ele>46.76</ele>
        <time>2025-04-13T14:17:59Z</time>
      </trkpt>
      <trkpt lat="44.88611" lon="-0.6429">
        <ele>46.76</ele>
        <time>2025-04-13T14:18:33Z</time>
      </trkpt>
      <trkpt lat="44.88602" lon="-0.64291">
        <ele>46.76</ele>
        <time>2025-04-13T14:19:08Z</time>
      </trkpt>
      <trkpt lat="44.88601" lon="-0.64297">
        <ele>46.76</ele>
        <time>2025-04-13T14:19:41Z</time>
      </trkpt>
      <trkpt lat="44.88608" lon="-0.64295">
        <ele>46.28</ele>
        <time>2025-04-13T14:20:14Z</time>
      </trkpt>
      <trkpt lat="44.88606" lon="-0.64292">
        <ele>45.8</ele>
        <time>2025-04-13T14:20:22Z</time>
      </trkpt>
      <trkpt lat="44.88636" lon="-0.64289">
        <ele>45.8</ele>
        <time>2025-04-13T14:24:22Z</time>
      </trkpt>
      <trkpt lat="44.88623" lon="-0.64289">
        <ele>45.8</ele>
        <time>2025-04-13T14:24:32Z</time>
      </trkpt>
      <trkpt lat="44.88611" lon="-0.64284">
        <ele>46.76</ele>
        <time>2025-04-13T14:29:47Z</time>
      </trkpt>
      <trkpt lat="44.88618" lon="-0.64289">
        <ele>47.24</ele>
        <time>2025-04-13T14:30:06Z</time>
      </trkpt>
      <trkpt lat="44.88619" lon="-0.64292">
        <ele>44.36</ele>
        <time>2025-04-13T14:30:11Z</time>
      </trkpt>
      <trkpt lat="44.88619" lon="-0.64292">
        <ele>44.36</ele>
        <time>2025-04-13T14:30:12Z</time>
      </trkpt>
      <trkpt lat="44.8862" lon="-0.64294">
        <ele>41.47</ele>
        <time>2025-04-13T14:30:17Z</time>
      </trkpt>
      <trkpt lat="44.8862" lon="-0.64294">
        <ele>38.11</ele>
        <time>2025-04-13T14:30:23Z</time>
      </trkpt>
      <trkpt lat="44.8862" lon="-0.64294">
        <ele>37.15</ele>
        <time>2025-04-13T14:30:25Z</time>
      </trkpt>
      <trkpt lat="44.88621" lon="-0.64295">
        <ele>33.78</ele>
        <time>2025-04-13T14:30:32Z</time>
      </trkpt>
      <trkpt lat="44.88622" lon="-0.64295">
        <ele>30.9</ele>
        <time>2025-04-13T14:30:38Z</time>
      </trkpt>
      <trkpt lat="44.88623" lon="-0.64294">
        <ele>27.53</ele>
        <time>2025-04-13T14:30:47Z</time>
      </trkpt>
      <trkpt lat="44.88623" lon="-0.64292">
        <ele>24.65</ele>
        <time>2025-04-13T14:31:00Z</time>
      </trkpt>
      <trkpt lat="44.88622" lon="-0.64291">
        <ele>21.29</ele>
        <time>2025-04-13T14:31:27Z</time>
      </trkpt>
      <trkpt lat="44.88616" lon="-0.64295">
        <ele>21.29</ele>
        <time>2025-04-13T14:31:59Z</time>
      </trkpt>
      <trkpt lat="44.88612" lon="-0.64293">
        <ele>22.25</ele>
        <time>2025-04-13T14:32:22Z</time>
      </trkpt>
      <trkpt lat="44.88613" lon="-0.64293">
        <ele>22.25</ele>
        <time>2025-04-13T14:32:57Z</time>
      </trkpt>
      <trkpt lat="44.88615" lon="-0.64293">
        <ele>21.77</ele>
        <time>2025-04-13T14:33:29Z</time>
      </trkpt>
      <trkpt lat="44.88613" lon="-0.64296">
        <ele>21.77</ele>
        <time>2025-04-13T14:34:05Z</time>
      </trkpt>
      <trkpt lat="44.88612" lon="-0.64299">
        <ele>22.25</ele>
        <time>2025-04-13T14:34:36Z</time>
      </trkpt>
      <trkpt lat="44.88617" lon="-0.64295">
        <ele>21.77</ele>
        <time>2025-04-13T14:35:03Z</time>
      </trkpt>
      <trkpt lat="44.88616" lon="-0.64297">
        <ele>21.29</ele>
        <time>2025-04-13T14:35:07Z</time>
      </trkpt>
      <trkpt lat="44.8862" lon="-0.64296">
        <ele>20.32</ele>
        <time>2025-04-13T14:35:12Z</time>
      </trkpt>
      <trkpt lat="44.88621" lon="-0.64296">
        <ele>21.77</ele>
        <time>2025-04-13T14:35:14Z</time>
      </trkpt>
      <trkpt lat="44.88624" lon="-0.64291">
        <ele>20.81</ele>
        <time>2025-04-13T14:35:30Z</time>
      </trkpt>
      <trkpt lat="44.88618" lon="-0.64277">
        <ele>20.81</ele>
        <time>2025-04-13T14:35:56Z</time>
      </trkpt>
      <trkpt lat="44.88614" lon="-0.64291">
        <ele>21.77</ele>
        <time>2025-04-13T14:36:21Z</time>
      </trkpt>
      <trkpt lat="44.8861" lon="-0.64286">
        <ele>21.77</ele>
        <time>2025-04-13T14:36:53Z</time>
      </trkpt>
      <trkpt lat="44.88604" lon="-0.64285">
        <ele>21.77</ele>
        <time>2025-04-13T14:37:24Z</time>
      </trkpt>
      <trkpt lat="44.88606" lon="-0.64282">
        <ele>22.25</ele>
        <time>2025-04-13T14:37:58Z</time>
      </trkpt>
      <trkpt lat="44.88606" lon="-0.64284">
        <ele>22.73</ele>
        <time>2025-04-13T14:38:29Z</time>
      </trkpt>
      <trkpt lat="44.886" lon="-0.64287">
        <ele>21.77</ele>
        <time>2025-04-13T14:38:57Z</time>
      </trkpt>
      <trkpt lat="44.88602" lon="-0.64285">
        <ele>21.77</ele>
        <time>2025-04-13T14:39:20Z</time>
      </trkpt>
      <trkpt lat="44.8859" lon="-0.64289">
        <ele>21.77</ele>
        <time>2025-04-13T14:39:50Z</time>
      </trkpt>
      <trkpt lat="44.88593" lon="-0.6429">
        <ele>22.73</ele>
        <time>2025-04-13T14:39:59Z</time>
      </trkpt>
      <trkpt lat="44.88597" lon="-0.64288">
        <ele>21.29</ele>
        <time>2025-04-13T14:40:02Z</time>
      </trkpt>
      <trkpt lat="44.88617" lon="-0.64287">
        <ele>20.81</ele>
        <time>2025-04-13T14:40:23Z</time>
      </trkpt>
      <trkpt lat="44.88618" lon="-0.64291">
        <ele>22.25</ele>
        <time>2025-04-13T14:40:46Z</time>
      </trkpt>
      <trkpt lat="44.88618" lon="-0.64291">
        <ele>22.73</ele>
        <time>2025-04-13T14:40:50Z</time>
      </trkpt>
      <trkpt lat="44.88633" lon="-0.64292">
        <ele>21.77</ele>
        <time>2025-04-13T14:41:09Z</time>
      </trkpt>
      <trkpt lat="44.88637" lon="-0.64292">
        <ele>21.77</ele>
        <time>2025-04-13T14:41:29Z</time>
      </trkpt>
      <trkpt lat="44.88642" lon="-0.64293">
        <ele>21.77</ele>
        <time>2025-04-13T14:41:58Z</time>
      </trkpt>
      <trkpt lat="44.88644" lon="-0.64292">
        <ele>21.77</ele>
        <time>2025-04-13T14:42:02Z</time>
      </trkpt>
      <trkpt lat="44.88667" lon="-0.64287">
        <ele>21.29</ele>
        <time>2025-04-13T14:42:27Z</time>
      </trkpt>
      <trkpt lat="44.88658" lon="-0.6429">
        <ele>22.73</ele>
        <time>2025-04-13T14:42:55Z</time>
      </trkpt>
      <trkpt lat="44.88656" lon="-0.64286">
        <ele>22.73</ele>
        <time>2025-04-13T14:43:26Z</time>
      </trkpt>
      <trkpt lat="44.88633" lon="-0.64293">
        <ele>21.77</ele>
        <time>2025-04-13T14:44:11Z</time>
      </trkpt>
      <trkpt lat="44.88621" lon="-0.64301">
        <ele>21.29</ele>
        <time>2025-04-13T14:44:20Z</time>
      </trkpt>
      <trkpt lat="44.88615" lon="-0.64305">
        <ele>20.81</ele>
        <time>2025-04-13T14:44:39Z</time>
      </trkpt>
      <trkpt lat="44.88616" lon="-0.64305">
        <ele>21.77</ele>
        <time>2025-04-13T14:44:40Z</time>
      </trkpt>
      <trkpt lat="44.88626" lon="-0.64299">
        <ele>22.25</ele>
        <time>2025-04-13T14:45:03Z</time>
      </trkpt>
      <trkpt lat="44.88624" lon="-0.64298">
        <ele>22.25</ele>
        <time>2025-04-13T14:45:06Z</time>
      </trkpt>
      <trkpt lat="44.88605" lon="-0.64294">
        <ele>22.25</ele>
        <time>2025-04-13T14:45:26Z</time>
      </trkpt>
      <trkpt lat="44.88607" lon="-0.64294">
        <ele>22.73</ele>
        <time>2025-04-13T14:45:32Z</time>
      </trkpt>
      <trkpt lat="44.88613" lon="-0.64294">
        <ele>22.73</ele>
        <time>2025-04-13T14:45:36Z</time>
      </trkpt>
      <trkpt lat="44.88649" lon="-0.64297">
        <ele>21.77</ele>
        <time>2025-04-13T14:45:54Z</time>
      </trkpt>
      <trkpt lat="44.88644" lon="-0.64296">
        <ele>21.77</ele>
        <time>2025-04-13T14:45:59Z</time>
      </trkpt>
      <trkpt lat="44.88643" lon="-0.64296">
        <ele>22.73</ele>
        <time>2025-04-13T14:46:00Z</time>
      </trkpt>
      <trkpt lat="44.88625" lon="-0.64297">
        <ele>21.77</ele>
        <time>2025-04-13T14:46:07Z</time>
      </trkpt>
      <trkpt lat="44.88605" lon="-0.643">
        <ele>21.77</ele>
        <time>2025-04-13T14:46:27Z</time>
      </trkpt>
      <trkpt lat="44.8861" lon="-0.643">
        <ele>23.21</ele>
        <time>2025-04-13T14:46:32Z</time>
      </trkpt>
      <trkpt lat="44.88616" lon="-0.643">
        <ele>23.21</ele>
        <time>2025-04-13T14:46:45Z</time>
      </trkpt>
      <trkpt lat="44.88618" lon="-0.64297">
        <ele>21.77</ele>
        <time>2025-04-13T14:46:59Z</time>
      </trkpt>
      <trkpt lat="44.88613" lon="-0.64296">
        <ele>21.77</ele>
        <time>2025-04-13T14:47:24Z</time>
      </trkpt>
    </trkseg>
  </trk>
</gpx>